createdAt,value
2023-05-03T00:04:15.000Z,3.7
2023-05-03T00:09:08.000Z,3.58
2023-05-03T00:14:00.000Z,3.44
2023-05-03T00:18:53.000Z,3.39
2023-05-03T00:23:47.000Z,3.29
2023-05-03T00:28:40.000Z,3.22
2023-05-03T00:33:34.000Z,3.16
2023-05-03T00:38:26.000Z,3.08
2023-05-03T00:43:19.000Z,3.05
2023-05-03T00:48:14.000Z,3.03
2023-05-03T00:53:08.000Z,3.17
2023-05-03T00:58:01.000Z,3.3
2023-05-03T01:02:56.000Z,3.26
2023-05-03T01:07:52.000Z,3.25
2023-05-03T01:12:43.000Z,3.17
2023-05-03T01:17:36.000Z,3.26
2023-05-03T01:22:30.000Z,3.15
2023-05-03T01:27:24.000Z,3.02
2023-05-03T01:32:18.000Z,2.98
2023-05-03T01:37:11.000Z,2.96
2023-05-03T01:42:05.000Z,2.97
2023-05-03T01:46:59.000Z,3.07
2023-05-03T01:51:53.000Z,3.04
2023-05-03T01:56:47.000Z,2.84
2023-05-03T02:01:40.000Z,2.76
2023-05-03T02:06:34.000Z,2.72
2023-05-03T02:11:28.000Z,2.77
2023-05-03T02:16:23.000Z,2.67
2023-05-03T02:21:14.000Z,2.49
2023-05-03T02:26:10.000Z,2.48
2023-05-03T02:31:00.000Z,2.38
2023-05-03T02:35:56.000Z,2.32
2023-05-03T02:40:49.000Z,2.24
2023-05-03T02:45:43.000Z,2.01
2023-05-03T02:50:37.000Z,1.99
2023-05-03T02:55:32.000Z,1.91
2023-05-03T03:00:24.000Z,1.84
2023-05-03T03:05:21.000Z,1.86
2023-05-03T03:10:12.000Z,1.83
2023-05-03T03:15:06.000Z,1.77
2023-05-03T03:20:00.000Z,1.64
2023-05-03T03:24:55.000Z,1.6
2023-05-03T03:29:47.000Z,1.63
2023-05-03T03:34:41.000Z,1.51
2023-05-03T03:39:34.000Z,1.47
2023-05-03T03:44:28.000Z,1.5
2023-05-03T03:49:23.000Z,1.5
2023-05-03T03:54:17.000Z,1.54
2023-05-03T03:59:11.000Z,1.53
2023-05-03T04:04:05.000Z,1.55
2023-05-03T04:08:58.000Z,1.57
2023-05-03T04:13:54.000Z,1.63
2023-05-03T04:18:46.000Z,1.63
2023-05-03T04:23:40.000Z,1.69
2023-05-03T04:28:33.000Z,1.61
2023-05-03T04:33:28.000Z,1.58
2023-05-03T04:38:22.000Z,1.64
2023-05-03T04:43:17.000Z,1.79
2023-05-03T04:48:11.000Z,1.88
2023-05-03T04:53:05.000Z,2.18
2023-05-03T04:57:58.000Z,2.28
2023-05-03T05:02:52.000Z,2.31
2023-05-03T05:07:46.000Z,2.34
2023-05-03T05:12:40.000Z,2.6
2023-05-03T05:17:33.000Z,2.89
2023-05-03T05:22:27.000Z,3.47
2023-05-03T05:27:22.000Z,4.16
2023-05-03T05:32:17.000Z,4.69
2023-05-03T05:37:11.000Z,5.13
2023-05-03T05:42:05.000Z,5.42
2023-05-03T05:46:58.000Z,5.67
2023-05-03T05:51:53.000Z,5.94
2023-05-03T05:56:47.000Z,6.16
2023-05-03T06:01:41.000Z,6.21
2023-05-03T06:06:35.000Z,6.36
2023-05-03T06:11:29.000Z,6.58
2023-05-03T06:16:24.000Z,6.74
2023-05-03T06:21:18.000Z,7.02
2023-05-03T06:26:13.000Z,7.14
2023-05-03T06:31:07.000Z,7.26
2023-05-03T06:36:01.000Z,7.63
2023-05-03T06:40:55.000Z,7.72
2023-05-03T06:45:49.000Z,7.86
2023-05-03T06:50:42.000Z,7.9
2023-05-03T06:55:36.000Z,8.02
2023-05-03T07:00:30.000Z,8.2
2023-05-03T07:05:25.000Z,8.33
2023-05-03T07:10:19.000Z,8.43
2023-05-03T07:15:14.000Z,8.48
2023-05-03T07:20:08.000Z,8.52
2023-05-03T07:25:02.000Z,8.58
2023-05-03T07:29:57.000Z,8.84
2023-05-03T07:34:50.000Z,9.09
2023-05-03T07:39:44.000Z,9.02
2023-05-03T07:44:38.000Z,9.33
2023-05-03T07:49:32.000Z,9.31
2023-05-03T07:54:27.000Z,9.5
2023-05-03T07:59:21.000Z,9.65
2023-05-03T08:04:15.000Z,10.05
2023-05-03T08:09:09.000Z,10.27
2023-05-03T08:14:03.000Z,10.15
2023-05-03T08:18:58.000Z,10.26
2023-05-03T08:23:52.000Z,10.47
2023-05-03T08:28:46.000Z,10.77
2023-05-03T08:33:40.000Z,10.79
2023-05-03T08:38:34.000Z,11.06
2023-05-03T08:43:29.000Z,11.31
2023-05-03T08:48:24.000Z,11.66
2023-05-03T08:53:15.000Z,11.97
2023-05-03T08:58:09.000Z,12.11
2023-05-03T09:03:03.000Z,12.09
2023-05-03T09:07:58.000Z,12.13
2023-05-03T09:12:52.000Z,12.79
2023-05-03T09:17:46.000Z,12.55
2023-05-03T09:22:40.000Z,13.16
2023-05-03T09:27:34.000Z,13.23
2023-05-03T09:32:28.000Z,13.26
2023-05-03T09:37:23.000Z,14.84
2023-05-03T09:42:18.000Z,17.75
2023-05-03T09:47:14.000Z,18.24
2023-05-03T09:52:11.000Z,19.32
2023-05-03T09:57:06.000Z,18.89
2023-05-03T10:02:01.000Z,18.74
2023-05-03T10:06:56.000Z,20.16
2023-05-03T10:11:51.000Z,19.56
2023-05-03T10:16:46.000Z,18.96
2023-05-03T10:21:40.000Z,20.68
2023-05-03T10:26:35.000Z,19.41
2023-05-03T10:31:29.000Z,20.69
2023-05-03T10:36:23.000Z,21.99
2023-05-03T10:41:18.000Z,20.99
2023-05-03T10:46:13.000Z,19.78
2023-05-03T10:51:07.000Z,21.29
2023-05-03T10:56:00.000Z,21.49
2023-05-03T11:00:55.000Z,23.19
2023-05-03T11:05:50.000Z,22.19
2023-05-03T11:10:44.000Z,21.66
2023-05-03T11:15:38.000Z,21.5
2023-05-03T11:20:29.000Z,22.25
2023-05-03T11:25:24.000Z,23.08
2023-05-03T11:30:18.000Z,23.38
2023-05-03T11:35:13.000Z,23.03
2023-05-03T11:40:10.000Z,23.84
2023-05-03T11:45:02.000Z,23.2
2023-05-03T11:49:56.000Z,23.95
2023-05-03T11:54:51.000Z,24.21
2023-05-03T11:59:45.000Z,24.06
2023-05-03T12:04:38.000Z,24.88
2023-05-03T12:09:33.000Z,24.78
2023-05-03T12:14:27.000Z,25.73
2023-05-03T12:19:21.000Z,26.12
2023-05-03T12:24:16.000Z,24.91
2023-05-03T12:29:10.000Z,25.74
2023-05-03T12:34:04.000Z,27.35
2023-05-03T12:38:59.000Z,25.4
2023-05-03T12:43:53.000Z,25.39
2023-05-03T12:48:48.000Z,24.31
2023-05-03T12:53:42.000Z,24.97
2023-05-03T12:58:36.000Z,26.01
2023-05-03T13:03:31.000Z,26.63
2023-05-03T13:13:19.000Z,25.58
2023-05-03T13:18:13.000Z,24.68
2023-05-03T13:23:08.000Z,24.38
2023-05-03T13:28:02.000Z,25.78
2023-05-03T13:32:57.000Z,26.35
2023-05-03T13:37:49.000Z,26.41
2023-05-03T13:42:43.000Z,26.76
2023-05-03T13:47:37.000Z,26.03
2023-05-03T13:52:31.000Z,27.73
2023-05-03T13:57:26.000Z,28.61
2023-05-03T14:02:20.000Z,27.28
2023-05-03T14:07:14.000Z,27.37
2023-05-03T14:12:09.000Z,27.14
2023-05-03T14:17:03.000Z,28.62
2023-05-03T14:21:58.000Z,29.11
2023-05-03T14:26:52.000Z,28.22
2023-05-03T14:31:46.000Z,28.22
2023-05-03T14:36:38.000Z,27.64
2023-05-03T14:41:32.000Z,27.28
2023-05-03T14:46:26.000Z,27.49
2023-05-03T14:51:18.000Z,27.96
2023-05-03T14:56:12.000Z,26.46
2023-05-03T15:01:06.000Z,26.29
2023-05-03T15:06:00.000Z,26.89
2023-05-03T15:10:54.000Z,27.62
2023-05-03T15:15:48.000Z,27.97
2023-05-03T15:20:43.000Z,29.19
2023-05-03T15:25:36.000Z,27.19
2023-05-03T15:30:28.000Z,27.13
2023-05-03T15:35:23.000Z,28.26
2023-05-03T15:40:16.000Z,29.38
2023-05-03T15:45:11.000Z,27.85
2023-05-03T15:50:04.000Z,29.05
2023-05-03T15:54:59.000Z,28.39
2023-05-03T15:59:53.000Z,28.85
2023-05-03T16:04:47.000Z,25.56
2023-05-03T16:09:41.000Z,27.6
2023-05-03T16:14:35.000Z,27.31
2023-05-03T16:19:30.000Z,27.45
2023-05-03T16:24:23.000Z,27.32
2023-05-03T16:29:17.000Z,26.72
2023-05-03T16:34:11.000Z,26.94
2023-05-03T16:39:06.000Z,27.08
2023-05-03T16:44:00.000Z,25.68
2023-05-03T16:48:54.000Z,26.02
2023-05-03T16:53:48.000Z,26.76
2023-05-03T16:58:42.000Z,26.31
2023-05-03T17:03:36.000Z,25.14
2023-05-03T17:08:30.000Z,24.88
2023-05-03T17:13:24.000Z,24.77
2023-05-03T17:18:19.000Z,23.62
2023-05-03T17:23:11.000Z,26.07
2023-05-03T17:28:05.000Z,24.38
2023-05-03T17:32:59.000Z,23.67
2023-05-03T17:37:53.000Z,24.7
2023-05-03T17:42:47.000Z,23.45
2023-05-03T17:47:41.000Z,23.69
2023-05-03T17:52:33.000Z,22.76
2023-05-03T17:57:27.000Z,22.57
2023-05-03T18:02:21.000Z,21.91
2023-05-03T18:07:14.000Z,20.46
2023-05-03T18:12:08.000Z,18.82
2023-05-03T18:17:02.000Z,17.52
2023-05-03T18:21:55.000Z,16.95
2023-05-03T18:26:46.000Z,16.16
2023-05-03T18:31:39.000Z,15.84
2023-05-03T18:36:33.000Z,15.82
2023-05-03T18:41:26.000Z,15.57
2023-05-03T18:46:21.000Z,15.33
2023-05-03T18:51:15.000Z,14.94
2023-05-03T18:56:09.000Z,14.83
2023-05-03T19:01:03.000Z,14.48
2023-05-03T19:05:57.000Z,14.16
2023-05-03T19:10:51.000Z,13.99
2023-05-03T19:15:44.000Z,13.76
2023-05-03T19:20:38.000Z,13.75
2023-05-03T19:25:32.000Z,13.51
2023-05-03T19:30:26.000Z,13.38
2023-05-03T19:35:21.000Z,13.15
2023-05-03T19:40:15.000Z,13.01
2023-05-03T19:45:09.000Z,12.84
2023-05-03T19:50:03.000Z,12.7
2023-05-03T19:54:57.000Z,12.47
2023-05-03T19:59:50.000Z,12.49
2023-05-03T20:04:43.000Z,12.33
2023-05-03T20:09:37.000Z,12.22
2023-05-03T20:14:31.000Z,12.16
2023-05-03T20:19:24.000Z,12.09
2023-05-03T20:24:18.000Z,11.86
2023-05-03T20:29:12.000Z,11.7
2023-05-03T20:34:07.000Z,11.62
2023-05-03T20:39:01.000Z,11.63
2023-05-03T20:43:55.000Z,11.74
2023-05-03T20:48:49.000Z,11.65
2023-05-03T20:53:43.000Z,11.5
2023-05-03T20:58:37.000Z,11.44
2023-05-03T21:03:29.000Z,11.5
2023-05-03T21:08:24.000Z,11.52
2023-05-03T21:13:18.000Z,11.73
2023-05-03T21:18:10.000Z,11.88
2023-05-03T21:23:04.000Z,11.98
2023-05-03T21:27:59.000Z,12.01
2023-05-03T21:32:53.000Z,12.06
2023-05-03T21:37:47.000Z,12.03
2023-05-03T21:42:41.000Z,12.09
2023-05-03T21:47:35.000Z,12.03
2023-05-03T21:52:30.000Z,12.04
2023-05-03T21:57:24.000Z,12.06
2023-05-03T22:02:18.000Z,12.08
2023-05-03T22:07:10.000Z,12.1
2023-05-03T22:12:05.000Z,12.01
2023-05-03T22:17:01.000Z,11.92
2023-05-03T22:21:53.000Z,11.77
2023-05-03T22:26:47.000Z,11.66
2023-05-03T22:31:41.000Z,11.54
2023-05-03T22:36:36.000Z,11.44
2023-05-03T22:41:30.000Z,11.35
2023-05-03T22:46:24.000Z,11.16
2023-05-03T22:51:18.000Z,11.05
2023-05-03T22:56:12.000Z,10.97
2023-05-03T23:01:06.000Z,10.95
2023-05-03T23:06:01.000Z,10.83
2023-05-03T23:10:55.000Z,10.65
2023-05-03T23:15:49.000Z,10.46
2023-05-03T23:20:42.000Z,10.24
2023-05-03T23:25:36.000Z,10.11
2023-05-03T23:30:30.000Z,9.59
2023-05-03T23:35:24.000Z,9.33
2023-05-03T23:40:19.000Z,9.23
2023-05-03T23:45:13.000Z,9.24
2023-05-03T23:50:07.000Z,9.08
2023-05-03T23:55:01.000Z,8.92
2023-05-03T23:59:55.000Z,8.93
